Time;durP1;ratioP1;P1;durP2;ratioP2;P2;SDS_P1;SDS_P2;PMS_P1;PMS_P2;Temp;Humidity;BMP_temperature;BMP_pressure;BME280_temperature;BME280_humidity;BME280_pressure;Samples;Min_cycle;Max_cycle;Signal;HPM_P1;HPM_P2
2022/05/02 00:02:03;;;;;;;16.93;15.37;;;;;;;;;;5073725;28;20451;-78
2022/05/02 00:04:30;;;;;;;16.67;15.27;;;;;;;;;;5072928;28;21043;-77
2022/05/02 00:06:57;;;;;;;16.20;14.90;;;;;;;;;;5073747;28;20472;-78
2022/05/02 00:09:24;;;;;;;16.37;15.00;;;;;;;;;;5073446;28;20444;-77
2022/05/02 00:11:53;;;;;;;16.07;14.73;;;;;;;;;;5073168;28;20424;-76
2022/05/02 00:14:20;;;;;;;15.97;14.53;;;;;;;;;;5073362;28;20448;-76
2022/05/02 00:16:48;;;;;;;16.60;15.20;;;;;;;;;;5072729;28;21298;-77
2022/05/02 00:19:15;;;;;;;16.93;15.30;;;;;;;;;;5073133;28;20449;-77
2022/05/02 00:21:42;;;;;;;16.93;15.40;;;;;;;;;;5073544;28;20444;-77
2022/05/02 00:24:10;;;;;;;16.20;14.90;;;;;;;;;;5073111;28;20525;-77
2022/05/02 00:26:37;;;;;;;16.27;14.77;;;;;;;;;;5073524;28;20464;-76
2022/05/02 00:29:05;;;;;;;17.00;15.40;;;;;;;;;;5073322;28;20456;-78
2022/05/02 00:31:32;;;;;;;17.07;15.57;;;;;;;;;;5073421;28;20495;-77
2022/05/02 00:33:59;;;;;;;17.10;15.57;;;;;;;;;;5080800;28;20444;-77
2022/05/02 00:36:26;;;;;;;17.43;15.80;;;;;;;;;;5091653;28;20452;-78
2022/05/02 00:38:53;;;;;;;16.80;15.40;;;;;;;;;;5083706;28;20486;-78
2022/05/02 00:41:22;;;;;;;17.00;15.50;;;;;;;;;;5073292;28;20448;-78
2022/05/02 00:43:49;;;;;;;17.47;15.87;;;;;;;;;;5072544;28;20514;-77
2022/05/02 00:46:21;;;;;;;18.30;16.67;;;;;;;;;;5072535;28;20500;-77
2022/05/02 00:48:48;;;;;;;17.33;15.63;;;;;;;;;;5072623;28;21098;-76
2022/05/02 00:51:15;;;;;;;17.77;16.27;;;;;;;;;;5072378;28;20499;-78
2022/05/02 00:53:42;;;;;;;17.50;16.00;;;;;;;;;;5072462;28;20451;-77
2022/05/02 00:56:09;;;;;;;18.17;16.60;;;;;;;;;;5073081;28;20461;-78
2022/05/02 00:58:37;;;;;;;17.53;16.07;;;;;;;;;;5072827;28;20456;-77
2022/05/02 01:01:04;;;;;;;18.37;16.53;;;;;;;;;;5075159;28;20433;-78
2022/05/02 01:03:33;;;;;;;20.60;16.67;;;;;;;;;;5078253;28;20448;-78
2022/05/02 01:08:45;;;;;;;17.33;15.87;;;;;;;;;;5072416;28;20459;-76
2022/05/02 01:11:12;;;;;;;16.83;15.43;;;;;;;;;;5072187;28;20456;-77
2022/05/02 01:13:40;;;;;;;16.70;15.30;;;;;;;;;;5072377;28;20464;-78
2022/05/02 01:16:14;;;;;;;16.20;14.80;;;;;;;;;;5072404;28;20469;-77
2022/05/02 01:18:44;;;;;;;16.43;15.00;;;;;;;;;;5072380;28;20568;-77
2022/05/02 01:21:14;;;;;;;16.40;15.10;;;;;;;;;;5072378;28;20455;-77
2022/05/02 01:23:41;;;;;;;17.00;15.43;;;;;;;;;;5071874;28;21124;-77
2022/05/02 01:26:08;;;;;;;16.90;15.40;;;;;;;;;;5072162;28;20452;-78
2022/05/02 01:28:41;;;;;;;17.90;16.23;;;;;;;;;;5072199;28;20453;-77
2022/05/02 01:31:08;;;;;;;16.10;14.57;;;;;;;;;;5071327;28;20440;-76
2022/05/02 01:33:35;;;;;;;17.00;15.60;;;;;;;;;;5072416;28;20434;-78
2022/05/02 01:36:02;;;;;;;16.27;14.73;;;;;;;;;;5071826;28;20460;-77
2022/05/02 01:38:31;;;;;;;16.20;14.80;;;;;;;;;;5071435;28;20445;-77
2022/05/02 01:40:59;;;;;;;16.93;15.53;;;;;;;;;;5071740;28;20440;-77
2022/05/02 01:43:26;;;;;;;17.17;15.77;;;;;;;;;;5071679;28;20441;-76
2022/05/02 01:45:54;;;;;;;16.40;15.00;;;;;;;;;;5071289;28;20484;-76
2022/05/02 01:48:21;;;;;;;16.40;14.90;;;;;;;;;;5071286;28;20523;-78
2022/05/02 01:50:48;;;;;;;17.50;15.80;;;;;;;;;;5071185;28;20441;-77
2022/05/02 01:53:15;;;;;;;16.53;15.10;;;;;;;;;;5070927;28;20808;-77
2022/05/02 01:55:45;;;;;;;14.80;13.57;;;;;;;;;;5071373;28;20437;-78
2022/05/02 01:58:12;;;;;;;17.80;16.27;;;;;;;;;;5071523;28;20540;-76
2022/05/02 02:00:39;;;;;;;16.73;15.23;;;;;;;;;;5071605;28;20456;-77
2022/05/02 02:03:07;;;;;;;17.00;15.50;;;;;;;;;;5071356;28;20456;-76
2022/05/02 02:05:48;;;;;;;17.20;15.70;;;;;;;;;;5071676;28;20484;-77
2022/05/02 02:08:15;;;;;;;16.67;15.13;;;;;;;;;;5071765;28;20435;-77
2022/05/02 02:10:44;;;;;;;18.30;16.70;;;;;;;;;;5071141;28;20453;-78
2022/05/02 02:13:11;;;;;;;16.67;15.00;;;;;;;;;;5070682;28;20451;-77
2022/05/02 02:15:38;;;;;;;17.80;16.13;;;;;;;;;;5071063;28;20469;-77
2022/05/02 02:18:06;;;;;;;16.40;15.00;;;;;;;;;;5071202;28;20908;-77
2022/05/02 02:20:33;;;;;;;20.63;16.77;;;;;;;;;;5071032;28;20445;-77
2022/05/02 02:23:02;;;;;;;18.03;16.33;;;;;;;;;;5070687;28;20490;-77
2022/05/02 02:25:29;;;;;;;16.83;15.33;;;;;;;;;;5070657;28;20992;-78
2022/05/02 02:27:58;;;;;;;16.50;15.10;;;;;;;;;;5070932;28;20902;-77
2022/05/02 02:30:25;;;;;;;16.73;15.23;;;;;;;;;;5071074;28;20445;-77
2022/05/02 02:32:52;;;;;;;17.53;16.03;;;;;;;;;;5070537;28;20455;-77
2022/05/02 02:35:20;;;;;;;16.87;15.27;;;;;;;;;;5070990;28;20532;-78
2022/05/02 02:37:47;;;;;;;18.30;16.40;;;;;;;;;;5070549;28;20506;-77
2022/05/02 02:40:14;;;;;;;17.90;16.40;;;;;;;;;;5070473;28;20454;-76
2022/05/02 02:42:41;;;;;;;17.33;15.70;;;;;;;;;;5070227;28;20459;-78
2022/05/02 02:45:10;;;;;;;17.13;15.63;;;;;;;;;;5075930;28;20473;-77
2022/05/02 02:47:38;;;;;;;16.80;15.30;;;;;;;;;;5085010;28;20856;-77
2022/05/02 02:50:05;;;;;;;17.93;16.33;;;;;;;;;;5090246;28;20829;-77
2022/05/02 02:52:32;;;;;;;18.80;17.20;;;;;;;;;;5090302;28;20444;-76
2022/05/02 02:54:59;;;;;;;18.70;16.60;;;;;;;;;;5090867;28;20485;-78
2022/05/02 02:57:26;;;;;;;17.77;16.23;;;;;;;;;;5090657;28;20464;-77
2022/05/02 02:59:53;;;;;;;17.90;16.40;;;;;;;;;;5090789;28;20551;-78
2022/05/02 03:02:21;;;;;;;18.70;16.93;;;;;;;;;;5090642;28;20451;-77
2022/05/02 03:07:34;;;;;;;18.40;16.90;;;;;;;;;;5090763;28;20443;-77
2022/05/02 03:10:01;;;;;;;17.67;16.07;;;;;;;;;;5090517;28;20452;-77
2022/05/02 03:12:28;;;;;;;18.43;16.77;;;;;;;;;;5090492;28;20447;-77
2022/05/02 03:14:55;;;;;;;17.33;15.77;;;;;;;;;;5090892;28;20435;-79
2022/05/02 03:17:23;;;;;;;17.43;15.93;;;;;;;;;;5090629;28;20997;-77
2022/05/02 03:19:51;;;;;;;17.50;15.90;;;;;;;;;;5090890;28;20439;-76
2022/05/02 03:22:18;;;;;;;18.90;17.30;;;;;;;;;;5090563;28;20466;-77
2022/05/02 03:24:45;;;;;;;20.57;18.47;;;;;;;;;;5090599;28;21004;-79
2022/05/02 03:27:12;;;;;;;18.40;16.67;;;;;;;;;;5091969;28;20529;-78
2022/05/02 03:29:39;;;;;;;18.03;16.43;;;;;;;;;;5091302;28;20439;-77
2022/05/02 03:32:07;;;;;;;17.60;16.10;;;;;;;;;;5091449;28;20452;-77
2022/05/02 03:34:35;;;;;;;19.50;17.80;;;;;;;;;;5090698;28;20447;-78
2022/05/02 03:37:02;;;;;;;19.00;17.20;;;;;;;;;;5090466;28;20509;-78
2022/05/02 03:39:30;;;;;;;19.20;17.50;;;;;;;;;;5090707;28;20962;-78
2022/05/02 03:41:57;;;;;;;18.53;16.77;;;;;;;;;;5090014;28;20825;-77
2022/05/02 03:44:24;;;;;;;18.63;17.03;;;;;;;;;;5090099;28;20807;-77
2022/05/02 03:46:51;;;;;;;19.10;17.40;;;;;;;;;;5090193;28;20471;-77
2022/05/02 03:49:18;;;;;;;18.57;16.93;;;;;;;;;;5092919;28;20448;-77
2022/05/02 03:51:46;;;;;;;18.70;17.10;;;;;;;;;;5093664;28;20448;-76
2022/05/02 03:54:13;;;;;;;17.90;16.00;;;;;;;;;;5094912;28;20461;-77
2022/05/02 03:56:40;;;;;;;19.57;17.67;;;;;;;;;;5096774;28;20463;-76
2022/05/02 03:59:07;;;;;;;18.67;17.07;;;;;;;;;;5095580;28;20448;-79
2022/05/02 04:01:36;;;;;;;19.70;17.80;;;;;;;;;;5093994;28;20467;-78
2022/05/02 04:04:03;;;;;;;19.57;17.87;;;;;;;;;;5093809;28;20440;-76
2022/05/02 04:06:30;;;;;;;20.70;18.80;;;;;;;;;;5093518;28;20502;-77
2022/05/02 04:08:59;;;;;;;20.33;18.43;;;;;;;;;;5093579;28;20467;-77
2022/05/02 04:11:26;;;;;;;19.03;17.23;;;;;;;;;;5093615;28;20455;-76
2022/05/02 04:13:53;;;;;;;19.73;17.97;;;;;;;;;;5093325;28;20462;-77
2022/05/02 04:16:20;;;;;;;19.67;17.67;;;;;;;;;;5093943;28;20857;-77
2022/05/02 04:18:48;;;;;;;19.23;17.40;;;;;;;;;;5083698;28;20452;-77
2022/05/02 04:21:15;;;;;;;19.20;17.40;;;;;;;;;;5074112;28;20470;-79
2022/05/02 04:23:44;;;;;;;19.87;17.90;;;;;;;;;;5073338;28;20511;-79
2022/05/02 04:26:13;;;;;;;19.53;17.70;;;;;;;;;;5073916;28;20484;-78
2022/05/02 04:28:40;;;;;;;19.50;17.70;;;;;;;;;;5074788;28;20453;-77
2022/05/02 04:31:07;;;;;;;19.37;17.47;;;;;;;;;;5085334;28;20875;-77
2022/05/02 04:33:34;;;;;;;21.17;19.23;;;;;;;;;;5092749;28;20443;-78
2022/05/02 04:36:01;;;;;;;20.47;18.70;;;;;;;;;;5073358;28;20988;-78
2022/05/02 04:38:30;;;;;;;20.03;18.13;;;;;;;;;;5073994;28;20563;-78
2022/05/02 04:40:57;;;;;;;21.13;19.13;;;;;;;;;;5075672;28;20440;-76
2022/05/02 04:43:25;;;;;;;19.13;17.43;;;;;;;;;;5096346;28;20451;-76
2022/05/02 04:45:53;;;;;;;21.70;19.70;;;;;;;;;;5094103;28;20475;-76
2022/05/02 04:48:20;;;;;;;24.10;21.30;;;;;;;;;;5091919;28;20451;-76
2022/05/02 05:03:04;;;;;;;21.27;19.37;;;;;;;;;;4918197;29;20484;-75
2022/05/02 05:06:10;;;;;;;;;;;;;;;;;;;;;
2022/05/02 05:08:37;;;;;;;20.87;18.87;;;;;;;;;;5089622;28;20552;-77
2022/05/02 05:21:40;;;;;;;;;;;;;;;;;;;;;
2022/05/02 05:24:44;;;;;;;23.67;21.40;;;;;;;;;;4840687;29;20447;-77
2022/05/02 05:27:25;;;;;;;21.97;19.87;;;;;;;;;;5011068;28;20487;-77
2022/05/02 05:30:01;;;;;;;24.23;21.73;;;;;;;;;;5010560;28;20436;-76
2022/05/02 05:32:30;;;;;;;24.53;22.23;;;;;;;;;;5010343;28;20805;-78
2022/05/02 05:35:03;;;;;;;25.27;22.77;;;;;;;;;;5009442;28;20517;-77
2022/05/02 05:37:48;;;;;;;25.53;23.23;;;;;;;;;;5023440;28;20464;-78
2022/05/02 05:40:19;;;;;;;25.63;23.20;;;;;;;;;;5096189;28;20462;-78
2022/05/02 05:42:52;;;;;;;25.90;23.50;;;;;;;;;;5095477;28;20489;-78
2022/05/02 05:45:24;;;;;;;24.57;22.17;;;;;;;;;;5094098;28;20986;-78
2022/05/02 05:47:58;;;;;;;26.23;22.43;;;;;;;;;;5093963;28;20480;-78
2022/05/02 05:50:26;;;;;;;26.10;23.70;;;;;;;;;;5093634;28;20899;-78
2022/05/02 05:53:04;;;;;;;26.43;23.83;;;;;;;;;;5093138;28;20950;-77
2022/05/02 05:55:40;;;;;;;27.20;24.27;;;;;;;;;;5093288;28;20589;-78
2022/05/02 05:58:15;;;;;;;24.90;22.60;;;;;;;;;;5093294;28;20497;-78
2022/05/02 06:00:44;;;;;;;31.27;28.23;;;;;;;;;;5092166;28;20408;-77
2022/05/02 06:03:15;;;;;;;29.40;26.67;;;;;;;;;;5072967;28;20472;-77
2022/05/02 06:05:43;;;;;;;28.43;25.53;;;;;;;;;;5073614;28;20473;-76
2022/05/02 06:08:11;;;;;;;27.80;24.53;;;;;;;;;;5093079;28;20463;-76
2022/05/02 06:10:38;;;;;;;27.07;23.37;;;;;;;;;;5092776;28;20444;-76
2022/05/02 06:13:06;;;;;;;26.83;24.23;;;;;;;;;;5093622;28;20476;-76
2022/05/02 06:18:30;;;;;;;28.87;25.80;;;;;;;;;;5104488;28;20395;-77
2022/05/02 06:20:59;;;;;;;27.43;24.27;;;;;;;;;;5092416;28;20409;-78
2022/05/02 06:23:29;;;;;;;27.13;24.60;;;;;;;;;;5092459;28;20471;-78
2022/05/02 06:25:56;;;;;;;30.00;26.97;;;;;;;;;;5092951;28;20479;-77
2022/05/02 06:28:24;;;;;;;28.13;25.57;;;;;;;;;;5092515;28;20443;-77
2022/05/02 06:30:53;;;;;;;26.30;23.87;;;;;;;;;;5092940;28;20456;-78
2022/05/02 06:33:21;;;;;;;25.53;23.10;;;;;;;;;;5092285;28;20477;-78
2022/05/02 06:35:53;;;;;;;27.47;24.80;;;;;;;;;;5092153;28;20861;-78
2022/05/02 06:38:27;;;;;;;25.57;23.07;;;;;;;;;;5092214;28;20796;-77
2022/05/02 06:41:01;;;;;;;28.20;25.60;;;;;;;;;;5091882;28;20443;-76
2022/05/02 06:43:32;;;;;;;27.53;24.73;;;;;;;;;;5091857;28;20428;-77
2022/05/02 06:46:07;;;;;;;26.13;23.73;;;;;;;;;;5091764;28;20472;-77
2022/05/02 06:48:36;;;;;;;31.53;28.40;;;;;;;;;;5092053;28;20415;-77
2022/05/02 06:51:06;;;;;;;28.13;24.97;;;;;;;;;;5090939;28;20440;-75
2022/05/02 06:54:03;;;;;;;26.73;24.10;;;;;;;;;;5090801;28;20440;-76
2022/05/02 06:56:34;;;;;;;26.20;23.70;;;;;;;;;;5091714;28;20456;-76
2022/05/02 06:59:08;;;;;;;25.97;23.67;;;;;;;;;;5091595;28;20491;-77
2022/05/02 07:01:41;;;;;;;25.83;23.48;;;;;;;;;;5091249;28;20547;-76
2022/05/02 07:04:21;;;;;;;25.63;22.93;;;;;;;;;;5090940;28;20201;-77
2022/05/02 07:06:53;;;;;;;29.05;26.45;;;;;;;;;;5090232;28;20452;-77
2022/05/02 07:09:23;;;;;;;27.50;25.20;;;;;;;;;;5091332;28;20208;-77
2022/05/02 07:15:04;;;;;;;25.80;23.37;;;;;;;;;;5091534;28;20834;-78
2022/05/02 07:17:42;;;;;;;27.50;24.90;;;;;;;;;;5090823;28;20496;-76
2022/05/02 07:20:10;;;;;;;29.83;27.33;;;;;;;;;;5090413;28;20437;-77
2022/05/02 07:22:39;;;;;;;27.67;25.07;;;;;;;;;;5090948;28;20699;-76
2022/05/02 07:25:09;;;;;;;28.70;26.10;;;;;;;;;;5090989;28;20443;-77
2022/05/02 07:28:00;;;;;;;27.90;25.33;;;;;;;;;;5091686;28;20221;-77
2022/05/02 07:30:27;;;;;;;26.83;24.20;;;;;;;;;;5079687;28;20446;-77
2022/05/02 07:32:56;;;;;;;26.50;24.20;;;;;;;;;;5095222;28;20520;-76
2022/05/02 07:35:24;;;;;;;25.93;23.53;;;;;;;;;;5094989;28;20439;-75
2022/05/02 07:37:51;;;;;;;27.33;24.83;;;;;;;;;;5095369;28;20452;-77
2022/05/02 07:40:20;;;;;;;28.40;25.50;;;;;;;;;;5095161;28;20458;-76
2022/05/02 07:42:47;;;;;;;27.00;24.50;;;;;;;;;;5094566;28;20848;-78
2022/05/02 07:45:17;;;;;;;26.67;24.17;;;;;;;;;;5095141;28;20479;-77
2022/05/02 07:47:45;;;;;;;27.17;24.73;;;;;;;;;;5094251;28;21074;-76
2022/05/02 07:50:13;;;;;;;26.07;23.77;;;;;;;;;;5094586;28;20846;-76
2022/05/02 07:52:40;;;;;;;24.97;22.67;;;;;;;;;;5094527;28;20440;-77
2022/05/02 07:55:09;;;;;;;23.70;21.70;;;;;;;;;;5095032;28;20476;-78
2022/05/02 07:57:38;;;;;;;24.53;22.27;;;;;;;;;;5094501;28;20554;-76
2022/05/02 08:00:07;;;;;;;23.97;21.63;;;;;;;;;;5094569;28;20543;-77
2022/05/02 08:02:35;;;;;;;23.80;21.50;;;;;;;;;;5093971;28;20447;-76
2022/05/02 08:05:02;;;;;;;23.87;21.47;;;;;;;;;;5094690;28;20447;-76
2022/05/02 08:07:33;;;;;;;21.53;19.73;;;;;;;;;;5094684;28;20487;-76
2022/05/02 08:10:24;;;;;;;24.67;22.43;;;;;;;;;;5096426;28;20455;-76
2022/05/02 08:12:54;;;;;;;24.73;22.43;;;;;;;;;;5095307;28;20450;-76
2022/05/02 08:15:24;;;;;;;26.73;24.33;;;;;;;;;;5095345;28;20439;-76
2022/05/02 08:18:13;;;;;;;26.03;23.70;;;;;;;;;;5096857;28;20459;-76
2022/05/02 08:20:44;;;;;;;27.87;25.27;;;;;;;;;;5098025;28;20449;-76
2022/05/02 08:28:58;;;;;;;25.27;23.07;;;;;;;;;;5094919;28;20909;-77
2022/05/02 08:31:31;;;;;;;23.93;21.47;;;;;;;;;;5094859;28;20782;-76
2022/05/02 08:34:03;;;;;;;26.07;23.80;;;;;;;;;;5096194;28;20471;-77
2022/05/02 08:36:32;;;;;;;26.03;23.83;;;;;;;;;;5093950;28;20799;-76
2022/05/02 08:39:03;;;;;;;26.20;23.90;;;;;;;;;;5094559;28;20447;-76
2022/05/02 08:41:52;;;;;;;25.00;22.80;;;;;;;;;;5093894;28;20883;-78
2022/05/02 08:44:36;;;;;;;22.27;20.33;;;;;;;;;;5095199;28;20436;-76
2022/05/02 08:47:15;;;;;;;21.60;19.63;;;;;;;;;;5094114;28;20559;-76
2022/05/02 08:49:57;;;;;;;20.33;18.60;;;;;;;;;;5094769;28;20444;-76
2022/05/02 08:52:42;;;;;;;21.23;19.27;;;;;;;;;;5091775;28;20459;-76
2022/05/02 08:55:30;;;;;;;23.25;21.15;;;;;;;;;;5094429;28;20837;-76
2022/05/02 08:58:18;;;;;;;22.97;20.80;;;;;;;;;;5094275;28;20222;-76
2022/05/02 09:00:55;;;;;;;19.40;17.70;;;;;;;;;;5068019;28;20432;-76
2022/05/02 09:03:34;;;;;;;20.57;18.63;;;;;;;;;;5094067;28;20443;-76
2022/05/02 09:06:18;;;;;;;19.77;18.07;;;;;;;;;;5093694;28;20464;-76
2022/05/02 09:09:03;;;;;;;20.50;18.80;;;;;;;;;;5093004;28;20792;-77
2022/05/02 09:11:37;;;;;;;19.10;17.50;;;;;;;;;;5093732;28;20235;-76
2022/05/02 09:14:25;;;;;;;19.10;17.50;;;;;;;;;;5093279;28;20446;-76
2022/05/02 09:17:06;;;;;;;21.10;19.40;;;;;;;;;;5092489;28;20957;-75
2022/05/02 09:19:45;;;;;;;21.33;19.43;;;;;;;;;;5092884;28;20587;-76
2022/05/02 09:22:28;;;;;;;22.03;20.07;;;;;;;;;;5093502;28;20439;-75
2022/05/02 09:25:05;;;;;;;22.50;20.60;;;;;;;;;;5093595;28;20444;-75
2022/05/02 09:27:53;;;;;;;23.00;21.00;;;;;;;;;;5092712;28;20455;-75
2022/05/02 09:30:41;;;;;;;17.87;15.60;;;;;;;;;;5088160;28;20588;-76
2022/05/02 09:33:26;;;;;;;16.17;14.87;;;;;;;;;;5087430;28;20959;-76
2022/05/02 09:35:53;;;;;;;14.47;13.40;;;;;;;;;;5092856;28;20450;-76
2022/05/02 09:38:25;;;;;;;14.20;13.07;;;;;;;;;;5092788;28;20444;-76
2022/05/02 09:40:58;;;;;;;16.60;15.00;;;;;;;;;;5092877;28;20440;-76
2022/05/02 09:52:04;;;;;;;12.57;11.57;;;;;;;;;;5091828;28;20694;-76
2022/05/02 09:57:32;;;;;;;12.53;11.50;;;;;;;;;;5092378;28;20447;-76
2022/05/02 10:02:46;;;;;;;13.50;12.40;;;;;;;;;;5092079;28;20447;-76
2022/05/02 10:05:22;;;;;;;13.50;12.40;;;;;;;;;;5092202;28;20931;-76
2022/05/02 10:07:53;;;;;;;13.57;12.47;;;;;;;;;;5092495;28;20479;-77
2022/05/02 10:10:25;;;;;;;12.70;11.80;;;;;;;;;;5092103;28;20521;-77
2022/05/02 10:12:54;;;;;;;12.90;11.90;;;;;;;;;;5092560;28;20519;-75
2022/05/02 10:15:42;;;;;;;13.90;12.60;;;;;;;;;;5092213;28;20428;-77
2022/05/02 10:18:17;;;;;;;13.73;12.43;;;;;;;;;;5087363;28;20440;-76
2022/05/02 10:20:59;;;;;;;13.37;12.37;;;;;;;;;;5092778;28;20431;-76
2022/05/02 10:23:39;;;;;;;11.87;10.97;;;;;;;;;;5092014;28;20550;-76
2022/05/02 10:26:10;;;;;;;11.98;11.07;;;;;;;;;;5091083;28;21002;-76
2022/05/02 10:28:42;;;;;;;11.70;10.60;;;;;;;;;;5093056;28;20229;-77
2022/05/02 10:31:11;;;;;;;11.63;10.50;;;;;;;;;;5094013;28;20440;-76
2022/05/02 10:33:45;;;;;;;11.90;11.00;;;;;;;;;;5093933;28;20480;-76
2022/05/02 10:36:14;;;;;;;11.63;10.73;;;;;;;;;;5093834;28;20467;-76
2022/05/02 10:38:46;;;;;;;10.45;9.75;;;;;;;;;;5092902;28;20343;-76
2022/05/02 10:41:17;;;;;;;10.40;9.60;;;;;;;;;;5091815;28;20209;-76
2022/05/02 10:43:46;;;;;;;10.23;9.47;;;;;;;;;;5091452;28;20936;-76
2022/05/02 10:46:13;;;;;;;11.03;10.20;;;;;;;;;;5091568;28;20460;-75
2022/05/02 10:48:43;;;;;;;9.88;9.00;;;;;;;;;;5090614;28;20444;-76
2022/05/02 10:51:15;;;;;;;8.40;7.80;;;;;;;;;;5089927;28;20459;-76
2022/05/02 10:53:57;;;;;;;7.43;6.90;;;;;;;;;;5091190;28;20330;-76
2022/05/02 10:56:24;;;;;;;7.50;7.00;;;;;;;;;;5088332;28;20472;-75
2022/05/02 10:58:54;;;;;;;7.67;6.97;;;;;;;;;;5091292;28;20434;-77
2022/05/02 11:01:39;;;;;;;7.53;6.93;;;;;;;;;;5090839;28;20478;-74
2022/05/02 11:04:12;;;;;;;8.60;7.90;;;;;;;;;;5050056;28;20447;-75
2022/05/02 11:06:45;;;;;;;8.63;8.03;;;;;;;;;;5091263;28;20463;-76
2022/05/02 11:09:15;;;;;;;7.90;7.30;;;;;;;;;;5091319;28;20452;-75
2022/05/02 11:11:46;;;;;;;8.00;7.33;;;;;;;;;;5091314;28;20443;-76
2022/05/02 11:14:15;;;;;;;7.63;7.13;;;;;;;;;;5090594;28;20493;-76
2022/05/02 11:16:48;;;;;;;8.30;7.70;;;;;;;;;;5091292;28;20939;-75
2022/05/02 11:22:16;;;;;;;7.13;6.73;;;;;;;;;;5091159;28;20447;-75
2022/05/02 11:24:44;;;;;;;7.60;7.10;;;;;;;;;;5090903;28;20523;-78
2022/05/02 11:27:22;;;;;;;7.77;7.20;;;;;;;;;;5090946;28;20475;-76
2022/05/02 11:29:56;;;;;;;8.67;8.07;;;;;;;;;;5091067;28;20880;-75
2022/05/02 11:32:27;;;;;;;8.63;8.03;;;;;;;;;;5090905;28;20448;-77
2022/05/02 11:35:03;;;;;;;8.37;7.70;;;;;;;;;;5090648;28;20500;-78
2022/05/02 11:37:35;;;;;;;8.93;8.33;;;;;;;;;;5090590;28;20456;-75
2022/05/02 11:40:03;;;;;;;9.97;9.27;;;;;;;;;;5090760;28;20447;-75
2022/05/02 11:42:32;;;;;;;8.87;8.27;;;;;;;;;;5090629;28;20978;-76
2022/05/02 11:45:07;;;;;;;8.63;8.03;;;;;;;;;;5090517;28;20447;-75
2022/05/02 11:47:43;;;;;;;8.37;7.77;;;;;;;;;;5090270;28;20491;-75
2022/05/02 11:50:10;;;;;;;9.50;8.80;;;;;;;;;;5091252;28;20450;-75
2022/05/02 11:52:39;;;;;;;8.17;7.57;;;;;;;;;;5091524;28;20542;-76
2022/05/02 11:55:07;;;;;;;9.37;8.47;;;;;;;;;;5093956;28;20513;-76
2022/05/02 11:57:37;;;;;;;8.10;7.50;;;;;;;;;;5091371;28;20462;-75
2022/05/02 12:00:07;;;;;;;8.50;7.90;;;;;;;;;;5091232;28;20448;-74
2022/05/02 12:02:42;;;;;;;8.33;7.53;;;;;;;;;;5090936;28;20435;-75
2022/05/02 12:05:17;;;;;;;8.70;8.00;;;;;;;;;;5091246;28;20474;-75
2022/05/02 12:07:50;;;;;;;8.13;7.53;;;;;;;;;;5090680;28;20978;-76
2022/05/02 12:10:17;;;;;;;7.60;6.90;;;;;;;;;;5091024;28;20467;-76
2022/05/02 12:12:49;;;;;;;7.60;7.00;;;;;;;;;;5091001;28;20934;-76
2022/05/02 12:15:16;;;;;;;7.70;7.10;;;;;;;;;;5092381;28;20439;-75
2022/05/02 12:17:52;;;;;;;7.63;6.50;;;;;;;;;;5094954;28;20462;-75
2022/05/02 12:20:27;;;;;;;5.77;5.30;;;;;;;;;;5094847;28;20468;-76
2022/05/02 12:22:56;;;;;;;6.83;6.20;;;;;;;;;;5094174;28;20450;-77
2022/05/02 12:25:25;;;;;;;6.37;5.97;;;;;;;;;;5094552;28;20439;-76
2022/05/02 12:27:52;;;;;;;6.10;5.70;;;;;;;;;;5093274;28;20452;-77
2022/05/02 12:30:20;;;;;;;7.00;6.40;;;;;;;;;;5094455;28;20606;-77
2022/05/02 12:32:48;;;;;;;5.33;5.00;;;;;;;;;;5093682;28;20808;-77
2022/05/02 12:35:15;;;;;;;6.10;5.50;;;;;;;;;;5093721;28;20448;-76
2022/05/02 12:37:46;;;;;;;6.30;5.90;;;;;;;;;;5093678;28;20836;-75
2022/05/02 12:40:18;;;;;;;7.00;6.50;;;;;;;;;;5093727;28;20512;-76
2022/05/02 12:42:47;;;;;;;6.00;5.60;;;;;;;;;;5094935;28;20444;-75
2022/05/02 12:45:18;;;;;;;6.17;5.77;;;;;;;;;;5094437;28;20490;-76
2022/05/02 12:47:49;;;;;;;6.73;6.23;;;;;;;;;;5093807;28;20886;-75
2022/05/02 12:50:17;;;;;;;6.17;5.77;;;;;;;;;;5094354;28;20458;-75
2022/05/02 12:52:46;;;;;;;6.50;6.00;;;;;;;;;;5093913;28;20444;-77
2022/05/02 12:55:15;;;;;;;7.10;6.53;;;;;;;;;;5093985;28;20510;-76
2022/05/02 13:00:33;;;;;;;5.63;5.23;;;;;;;;;;5093370;28;20565;-75
2022/05/02 13:03:01;;;;;;;5.57;5.27;;;;;;;;;;5093300;28;20444;-76
2022/05/02 13:05:31;;;;;;;5.10;4.80;;;;;;;;;;5093441;28;20479;-76
2022/05/02 13:07:58;;;;;;;5.03;4.72;;;;;;;;;;5092819;28;20449;-75
2022/05/02 13:10:27;;;;;;;5.90;5.50;;;;;;;;;;5092322;28;20485;-76
2022/05/02 13:13:02;;;;;;;7.53;4.40;;;;;;;;;;5093117;28;20205;-75
2022/05/02 13:15:30;;;;;;;4.27;3.97;;;;;;;;;;5093184;28;20452;-75
2022/05/02 13:17:58;;;;;;;5.38;5.07;;;;;;;;;;5093106;28;20454;-75
2022/05/02 13:20:26;;;;;;;5.18;4.68;;;;;;;;;;5093001;28;20808;-76
2022/05/02 13:23:14;;;;;;;4.33;3.93;;;;;;;;;;5097239;28;20224;-75
2022/05/02 13:26:02;;;;;;;5.00;4.70;;;;;;;;;;5092807;28;20485;-76
2022/05/02 13:28:36;;;;;;;6.43;5.93;;;;;;;;;;5066501;28;20468;-75
2022/05/02 13:31:10;;;;;;;5.03;4.53;;;;;;;;;;5092581;28;20440;-76
2022/05/02 13:33:39;;;;;;;6.93;6.43;;;;;;;;;;5092347;28;20208;-75
2022/05/02 13:36:08;;;;;;;5.87;5.40;;;;;;;;;;5092875;28;20880;-76
2022/05/02 13:38:41;;;;;;;4.30;4.00;;;;;;;;;;5092843;28;20951;-76
2022/05/02 13:41:13;;;;;;;5.03;4.73;;;;;;;;;;5092437;28;20988;-74
2022/05/02 13:43:45;;;;;;;5.47;5.07;;;;;;;;;;5092284;28;20444;-75
2022/05/02 13:46:17;;;;;;;4.80;4.50;;;;;;;;;;5092269;28;20516;-76
2022/05/02 13:48:56;;;;;;;4.33;4.13;;;;;;;;;;5092209;28;20509;-76
2022/05/02 13:51:30;;;;;;;4.87;4.47;;;;;;;;;;5092290;28;20440;-77
2022/05/02 13:53:59;;;;;;;5.17;4.87;;;;;;;;;;5092071;28;20471;-75
2022/05/02 13:56:31;;;;;;;5.20;4.80;;;;;;;;;;5091653;28;20839;-76
2022/05/02 13:59:16;;;;;;;7.65;7.05;;;;;;;;;;5091965;28;20995;-75
2022/05/02 14:01:47;;;;;;;6.03;4.75;;;;;;;;;;5092491;28;20097;-75
2022/05/02 14:04:19;;;;;;;5.38;5.07;;;;;;;;;;5092899;28;20551;-76
2022/05/02 14:09:41;;;;;;;5.63;5.13;;;;;;;;;;5080109;28;20535;-76
2022/05/02 14:12:28;;;;;;;5.00;4.70;;;;;;;;;;5091744;28;20236;-77
2022/05/02 14:14:58;;;;;;;5.10;4.80;;;;;;;;;;5092284;28;20443;-77
2022/05/02 14:17:28;;;;;;;4.90;4.60;;;;;;;;;;5091876;28;20471;-76
2022/05/02 14:20:10;;;;;;;5.40;5.00;;;;;;;;;;5091402;28;20441;-76
2022/05/02 14:22:38;;;;;;;4.97;4.67;;;;;;;;;;5091627;28;20644;-75
2022/05/02 14:25:06;;;;;;;4.50;4.10;;;;;;;;;;5091619;28;20482;-75
2022/05/02 14:27:33;;;;;;;4.10;3.80;;;;;;;;;;5091309;28;20487;-75
2022/05/02 14:30:03;;;;;;;4.00;3.80;;;;;;;;;;5091551;28;20455;-76
2022/05/02 14:32:40;;;;;;;4.10;3.80;;;;;;;;;;5091408;28;20440;-75
2022/05/02 14:35:07;;;;;;;5.33;4.93;;;;;;;;;;5091411;28;20505;-75
2022/05/02 14:37:35;;;;;;;4.78;4.47;;;;;;;;;;5091197;28;20437;-76
2022/05/02 14:40:03;;;;;;;4.67;4.37;;;;;;;;;;5091950;28;20645;-77
2022/05/02 14:42:31;;;;;;;4.37;4.17;;;;;;;;;;5091431;28;20482;-75
2022/05/02 14:44:59;;;;;;;5.75;5.35;;;;;;;;;;5091459;28;20468;-76
2022/05/02 14:47:28;;;;;;;6.10;5.70;;;;;;;;;;5090776;28;20503;-77
2022/05/02 14:49:57;;;;;;;5.10;4.80;;;;;;;;;;5091365;28;20225;-75
2022/05/02 14:52:25;;;;;;;5.90;5.50;;;;;;;;;;5091148;28;20935;-77
2022/05/02 14:54:52;;;;;;;5.00;4.70;;;;;;;;;;5091282;28;20448;-76
2022/05/02 14:57:23;;;;;;;4.57;4.33;;;;;;;;;;5091506;28;20456;-76
2022/05/02 14:59:52;;;;;;;5.60;5.20;;;;;;;;;;5091515;28;20443;-76
2022/05/02 15:02:21;;;;;;;4.87;4.40;;;;;;;;;;5091579;28;20447;-76
2022/05/02 15:04:53;;;;;;;5.53;5.13;;;;;;;;;;5091285;28;20450;-76
2022/05/02 15:07:22;;;;;;;4.53;4.27;;;;;;;;;;5091135;28;20459;-76
2022/05/02 15:12:50;;;;;;;4.85;4.55;;;;;;;;;;5089785;28;20470;-77
2022/05/02 15:15:35;;;;;;;5.27;4.87;;;;;;;;;;5092240;28;20186;-76
2022/05/02 15:18:14;;;;;;;5.70;5.17;;;;;;;;;;5084142;28;20463;-77
2022/05/02 15:20:45;;;;;;;4.70;4.40;;;;;;;;;;5091355;28;20443;-77
2022/05/02 15:23:14;;;;;;;5.90;5.40;;;;;;;;;;5091198;28;20862;-79
2022/05/02 15:25:50;;;;;;;4.77;4.47;;;;;;;;;;5091566;28;20447;-77
2022/05/02 15:36:50;;;;;;;5.40;4.90;;;;;;;;;;5091448;28;20909;-76
2022/05/02 15:39:29;;;;;;;5.57;5.17;;;;;;;;;;5091140;28;20796;-76
2022/05/02 15:41:58;;;;;;;5.93;5.40;;;;;;;;;;5092061;28;20953;-77
2022/05/02 15:44:27;;;;;;;5.68;5.18;;;;;;;;;;5092192;28;20476;-77
2022/05/02 15:46:55;;;;;;;6.07;5.67;;;;;;;;;;5091544;28;20213;-77
2022/05/02 15:49:23;;;;;;;5.47;5.10;;;;;;;;;;5090773;28;21029;-76
2022/05/02 15:51:52;;;;;;;5.80;5.40;;;;;;;;;;5094969;28;20439;-76
2022/05/02 15:54:33;;;;;;;6.10;5.60;;;;;;;;;;5094698;28;20450;-76
2022/05/02 15:57:16;;;;;;;6.20;5.80;;;;;;;;;;5094563;28;20553;-76
2022/05/02 15:59:44;;;;;;;5.63;5.23;;;;;;;;;;5094158;28;20994;-76
2022/05/02 16:02:12;;;;;;;5.93;5.50;;;;;;;;;;5094413;28;20450;-77
2022/05/02 16:04:49;;;;;;;6.03;5.63;;;;;;;;;;5093979;28;20444;-76
2022/05/02 16:12:48;;;;;;;5.47;5.07;;;;;;;;;;5094449;28;20560;-75